createdAt,value
2023-02-11T00:03:46.649Z,61.05
2023-02-11T00:08:48.247Z,60.07
2023-02-11T00:13:49.722Z,59.69
2023-02-11T00:18:52.941Z,59.63
2023-02-11T00:23:57.016Z,59.75
2023-02-11T00:28:58.537Z,61.03
2023-02-11T00:33:59.997Z,60.62
2023-02-11T00:39:01.493Z,60.86
2023-02-11T00:44:03.049Z,60.98
2023-02-11T00:49:04.555Z,61.13
2023-02-11T00:54:06.117Z,60.26
2023-02-11T00:59:07.619Z,59.89
2023-02-11T01:04:09.080Z,61.34
2023-02-11T01:09:10.543Z,60.85
2023-02-11T01:14:12.010Z,62.21
2023-02-11T01:19:13.474Z,61.58
2023-02-11T01:24:14.932Z,61.97
2023-02-11T01:29:16.421Z,62.28
2023-02-11T01:34:17.935Z,61.91
2023-02-11T01:39:19.449Z,61.86
2023-02-11T01:44:40.158Z,62.07
2023-02-11T01:49:44.223Z,62.21
2023-02-11T01:55:12.149Z,62.58
2023-02-11T02:00:16.535Z,62.34
2023-02-11T02:05:57.653Z,61.64
2023-02-11T02:11:00.876Z,61.47
2023-02-11T02:16:04.312Z,62.80
2023-02-11T02:21:43.135Z,63.34
2023-02-11T02:26:59.882Z,64.99
2023-02-11T02:32:26.165Z,62.68
2023-02-11T02:37:43.496Z,62.14
2023-02-11T02:42:45.012Z,63.41
2023-02-11T02:47:46.504Z,63.51
2023-02-11T02:53:08.302Z,64.32
2023-02-11T02:58:47.398Z,63.60
2023-02-11T03:03:59.383Z,61.44
2023-02-11T03:09:09.654Z,61.80
2023-02-11T03:14:13.730Z,61.02
2023-02-11T03:19:19.568Z,61.08
2023-02-11T03:24:26.208Z,60.71
2023-02-11T03:29:41.246Z,60.40
2023-02-11T03:34:47.220Z,60.19
2023-02-11T03:39:54.880Z,60.22
2023-02-11T03:45:19.849Z,61.25
2023-02-11T03:50:21.448Z,60.48
2023-02-11T03:55:23.058Z,60.55
2023-02-11T04:00:31.708Z,60.31
2023-02-11T04:05:33.206Z,60.08
2023-02-11T04:10:34.714Z,60.23
2023-02-11T04:15:36.217Z,59.50
2023-02-11T04:20:37.696Z,59.23
2023-02-11T04:25:40.249Z,60.19
2023-02-11T04:30:41.748Z,60.11
2023-02-11T04:35:43.231Z,60.94
2023-02-11T04:40:44.718Z,61.82
2023-02-11T04:45:46.202Z,61.05
2023-02-11T04:50:47.675Z,60.29
2023-02-11T04:55:50.846Z,60.36
2023-02-11T05:00:52.770Z,61.02
2023-02-11T05:05:55.365Z,59.95
2023-02-11T05:10:56.906Z,59.77
2023-02-11T05:15:58.409Z,60.30
2023-02-11T05:20:59.891Z,60.69
2023-02-11T05:26:01.970Z,60.05
2023-02-11T05:31:03.623Z,59.62
2023-02-11T05:36:09.230Z,59.06
2023-02-11T05:41:10.842Z,59.38
2023-02-11T05:46:18.879Z,59.39
2023-02-11T05:51:20.395Z,59.82
2023-02-11T05:56:21.889Z,59.07
2023-02-11T06:01:23.355Z,58.63
2023-02-11T06:06:25.182Z,59.13
2023-02-11T06:11:26.724Z,58.81
2023-02-11T06:16:28.322Z,58.94
2023-02-11T06:21:42.762Z,59.76
2023-02-11T06:26:45.168Z,59.09
2023-02-11T06:31:46.875Z,58.97
2023-02-11T06:36:48.383Z,59.06
2023-02-11T06:41:49.847Z,58.87
2023-02-11T06:46:51.405Z,59.17
2023-02-11T06:51:52.922Z,59.81
2023-02-11T06:56:54.383Z,60.59
2023-02-11T07:01:55.888Z,61.62
2023-02-11T07:06:57.415Z,61.59
2023-02-11T07:11:58.870Z,61.88
2023-02-11T07:17:00.327Z,61.73
2023-02-11T07:22:01.788Z,61.66
2023-02-11T07:27:03.270Z,61.79
2023-02-11T07:32:05.490Z,60.59
2023-02-11T07:37:07.285Z,60.81
2023-02-11T07:42:08.904Z,61.71
2023-02-11T07:47:10.403Z,62.16
2023-02-11T07:52:11.866Z,62.50
2023-02-11T07:57:13.346Z,62.81
2023-02-11T08:02:14.890Z,62.28
2023-02-11T08:07:19.206Z,62.32
2023-02-11T08:12:20.698Z,62.57
2023-02-11T08:17:22.167Z,61.76
2023-02-11T08:22:23.646Z,61.85
2023-02-11T08:27:26.433Z,61.21
2023-02-11T08:32:27.911Z,60.70
2023-02-11T08:37:31.411Z,61.03
2023-02-11T08:42:34.558Z,61.61
2023-02-11T08:47:36.810Z,62.45
2023-02-11T08:52:38.296Z,61.74
2023-02-11T08:57:39.775Z,61.92
2023-02-11T09:02:41.281Z,60.99
2023-02-11T09:07:42.774Z,60.98
2023-02-11T09:12:44.241Z,60.61
2023-02-11T09:17:45.711Z,61.32
2023-02-11T09:22:47.188Z,60.86
2023-02-11T09:27:48.658Z,60.51
2023-02-11T09:32:50.152Z,60.94
2023-02-11T09:37:51.638Z,61.06
2023-02-11T09:43:06.607Z,61.11
2023-02-11T09:48:18.586Z,61.69
2023-02-11T09:53:27.039Z,62.39
2023-02-11T09:58:30.272Z,67.42
2023-02-11T10:03:56.235Z,66.29
2023-02-11T10:09:13.966Z,64.81
2023-02-11T10:14:40.407Z,64.44
2023-02-11T10:19:56.586Z,64.19
2023-02-11T10:25:00.075Z,63.73
2023-02-11T10:30:09.762Z,64.43
2023-02-11T10:35:21.950Z,63.21
2023-02-11T10:40:28.283Z,62.43
2023-02-11T10:45:38.974Z,61.62
2023-02-11T10:50:40.443Z,61.15
2023-02-11T10:55:49.758Z,61.77
2023-02-11T11:00:52.951Z,61.61
2023-02-11T11:06:30.642Z,62.04
2023-02-11T11:11:32.168Z,61.98
2023-02-11T11:16:34.397Z,62.24
2023-02-11T11:21:40.413Z,62.10
2023-02-11T11:26:46.590Z,63.06
2023-02-11T11:31:53.996Z,61.76
2023-02-11T11:36:56.165Z,60.84
2023-02-11T11:42:07.957Z,61.11
2023-02-11T11:47:12.047Z,60.74
2023-02-11T11:52:32.748Z,60.85
2023-02-11T11:57:35.610Z,59.68
2023-02-11T12:03:35.656Z,59.54
2023-02-11T12:09:07.760Z,58.92
2023-02-11T12:14:18.062Z,58.12
2023-02-11T12:19:37.906Z,58.72
2023-02-11T12:24:57.185Z,58.37
2023-02-11T12:30:09.200Z,58.04
2023-02-11T12:35:28.693Z,58.50
2023-02-11T12:40:46.528Z,57.89
2023-02-11T12:45:59.208Z,58.42
2023-02-11T12:51:01.799Z,59.41
2023-02-11T12:56:15.453Z,58.29
2023-02-11T13:01:20.556Z,58.89
2023-02-11T13:06:31.131Z,59.66
2023-02-11T13:11:42.901Z,60.24
2023-02-11T13:16:48.989Z,60.00
2023-02-11T13:22:14.275Z,59.81
2023-02-11T13:27:27.509Z,59.69
2023-02-11T13:32:29.453Z,59.57
2023-02-11T13:37:35.385Z,60.03
2023-02-11T13:42:56.493Z,60.64
2023-02-11T13:47:58.760Z,60.18
2023-02-11T13:53:01.148Z,62.48
2023-02-11T13:58:08.372Z,63.55
2023-02-11T14:03:31.250Z,63.49
2023-02-11T14:08:51.395Z,63.48
2023-02-11T14:13:52.741Z,64.07
2023-02-11T14:18:54.032Z,63.38
2023-02-11T14:24:01.256Z,63.75
2023-02-11T14:29:26.361Z,63.43
2023-02-11T14:34:39.699Z,62.86
2023-02-11T14:39:49.529Z,64.60
2023-02-11T14:44:51.015Z,64.75
2023-02-11T14:49:52.625Z,65.14
2023-02-11T14:55:14.756Z,64.70
2023-02-11T15:00:21.297Z,65.21
2023-02-11T15:05:27.372Z,64.31
2023-02-11T15:10:36.698Z,64.57
2023-02-11T15:15:40.519Z,65.17
2023-02-11T15:20:42.021Z,64.70
2023-02-11T15:25:45.690Z,65.82
2023-02-11T15:30:47.218Z,66.21
2023-02-11T15:35:48.870Z,66.36
2023-02-11T15:41:01.428Z,65.73
2023-02-11T15:46:02.956Z,66.38
2023-02-11T15:51:23.130Z,65.90
2023-02-11T15:56:43.065Z,65.83
2023-02-11T16:01:45.436Z,66.23
2023-02-11T16:06:50.882Z,66.49
2023-02-11T16:11:52.188Z,65.24
2023-02-11T16:16:55.500Z,65.17
2023-02-11T16:21:57.472Z,65.65
2023-02-11T16:27:00.480Z,65.68
2023-02-11T16:32:19.634Z,65.86
2023-02-11T16:37:21.103Z,65.63
2023-02-11T16:42:23.247Z,65.66
2023-02-11T16:47:26.750Z,66.06
2023-02-11T16:52:30.534Z,66.47
2023-02-11T16:57:32.134Z,65.79
2023-02-11T17:02:34.507Z,65.90
2023-02-11T17:07:36.099Z,66.34
2023-02-11T17:12:37.570Z,66.68
2023-02-11T17:17:39.034Z,67.45
2023-02-11T17:22:40.581Z,67.66
2023-02-11T17:27:42.106Z,66.57
2023-02-11T17:32:43.653Z,67.62
2023-02-11T17:37:45.131Z,67.64
2023-02-11T17:42:46.598Z,67.19
2023-02-11T17:47:49.215Z,67.19
2023-02-11T17:52:50.725Z,66.42
2023-02-11T17:57:52.212Z,65.90
2023-02-11T18:02:56.495Z,65.67
2023-02-11T18:07:58.996Z,65.85
2023-02-11T18:13:01.181Z,65.97
2023-02-11T18:18:02.649Z,65.94
2023-02-11T18:23:04.134Z,66.09
2023-02-11T18:28:05.665Z,66.41
2023-02-11T18:33:11.908Z,65.61
2023-02-11T18:38:13.406Z,65.18
2023-02-11T18:43:14.876Z,65.02
2023-02-11T18:48:16.936Z,63.98
2023-02-11T18:53:18.415Z,64.60
2023-02-11T18:58:21.252Z,64.49
2023-02-11T19:03:22.779Z,63.51
2023-02-11T19:08:24.251Z,63.36
2023-02-11T19:13:25.896Z,63.39
2023-02-11T19:18:27.381Z,63.70
2023-02-11T19:23:28.848Z,63.78
2023-02-11T19:28:31.509Z,63.55
2023-02-11T19:33:33.047Z,63.96
2023-02-11T19:38:34.583Z,64.20
2023-02-11T19:43:36.170Z,63.68
2023-02-11T19:48:38.028Z,64.63
2023-02-11T19:53:39.504Z,65.15
2023-02-11T19:58:41.078Z,64.48
2023-02-11T20:03:42.846Z,64.29
2023-02-11T20:08:44.352Z,64.61
2023-02-11T20:13:45.877Z,65.04
2023-02-11T20:18:48.025Z,65.02
2023-02-11T20:23:50.038Z,65.61
2023-02-11T20:28:51.978Z,65.89
2023-02-11T20:33:53.461Z,65.72
2023-02-11T20:38:55.153Z,65.38
2023-02-11T20:43:58.450Z,65.72
2023-02-11T20:48:59.960Z,65.45
2023-02-11T20:54:01.435Z,66.04
2023-02-11T20:59:03.778Z,66.41
2023-02-11T21:04:07.173Z,65.71
2023-02-11T21:09:09.192Z,66.33
2023-02-11T21:14:11.019Z,65.99
2023-02-11T21:19:12.600Z,66.68
2023-02-11T21:24:14.089Z,66.65
2023-02-11T21:29:15.576Z,65.08
2023-02-11T21:34:17.314Z,65.63
2023-02-11T21:39:19.291Z,66.14
2023-02-11T21:44:20.802Z,64.50
2023-02-11T21:49:22.281Z,64.63
2023-02-11T21:54:25.735Z,64.59
2023-02-11T21:59:29.218Z,64.66
2023-02-11T22:04:30.958Z,65.13
2023-02-11T22:09:32.496Z,64.87
2023-02-11T22:14:34.784Z,65.13
2023-02-11T22:19:36.253Z,64.79
2023-02-11T22:24:37.730Z,65.36
2023-02-11T22:29:39.239Z,65.42
2023-02-11T22:34:40.712Z,65.07
2023-02-11T22:39:42.699Z,65.63
2023-02-11T22:44:44.230Z,65.85
2023-02-11T22:49:45.689Z,65.66
2023-02-11T22:54:50.765Z,65.11
2023-02-11T22:59:52.227Z,64.17
2023-02-11T23:04:53.721Z,63.19
2023-02-11T23:09:55.183Z,63.61
2023-02-11T23:14:56.639Z,63.37
2023-02-11T23:19:58.107Z,63.43
2023-02-11T23:24:59.633Z,63.92
2023-02-11T23:30:01.334Z,63.21
2023-02-11T23:35:02.795Z,63.27
2023-02-11T23:40:04.350Z,63.95
2023-02-11T23:45:06.722Z,65.19
2023-02-11T23:50:08.832Z,65.59
2023-02-11T23:55:10.287Z,65.71
